메인 페이지
METAR-TAF:

METAR-TAF

공항 :

니아메, 니제르

위도: 13-29N, 경도: 002-10E, 고도: 223m

현재 날씨관측

예보는 1 시간 8분 전, 15:00시(UTC)에 발표되었습니다.
동북동10kt
온도 32°C
습도 9%
기압 1014 hPa
시정: 4500m
황사

METAR: DRRN 181500Z 07010KT 4500 DU NSC 32/M05 Q1014 NOSIG

시각: 17:08 (16:08 UTC)

예보

예보는 11 시간 8분 전, 05:00시(UTC)에 발표되었습니다.
예보 대상 시간: 18일 06시부터 19일 12시까지 (UTC)
8kt
시정: 4000m
황사
일시적
18일 08시부터 18일 12시까지 (UTC)
18kt
시정: 2500m
날린먼지

TAF: DRRN 180500Z 1806/1912 08008KT 4000 DU NSC TEMPO 1808/1812 10018KT 2500 BLDU

4,000개 이상의 공항 관측 자료 및 예보 (METAR 및 TAF 보고).

지도상에서 검색 가능한 기상관측소가 노란 점과 빨간 점으로 표시되어 있습니다.

기상관측소 명을 보려면 표시 위로 마우스를 이동하세요.

날씨 관측과 예보를 보려면 클릭하세요.

지도 변경 : 확대하려면 엑스 표시가 있는 녹색 버튼, 축소하려면 빼기 표시가 있는 녹색 버튼, 다음 페이지의 지도를 보려면 녹색 화살표를 클릭하세요.


METAR-TAF: